createdAt,value
2023-04-16T00:02:04.321Z,3.10
2023-04-16T00:04:31.669Z,3.10
2023-04-16T00:06:58.653Z,3.00
2023-04-16T00:09:25.751Z,3.00
2023-04-16T00:11:52.748Z,3.00
2023-04-16T00:14:19.607Z,2.90
2023-04-16T00:16:46.824Z,2.90
2023-04-16T00:19:13.825Z,2.90
2023-04-16T00:21:40.910Z,2.90
2023-04-16T00:24:07.776Z,2.80
2023-04-16T00:26:34.862Z,2.80
2023-04-16T00:29:01.966Z,2.80
2023-04-16T00:31:30.368Z,2.80
2023-04-16T00:33:57.691Z,2.70
2023-04-16T00:36:25.902Z,2.70
2023-04-16T00:38:53.775Z,2.70
2023-04-16T00:41:20.697Z,2.70
2023-04-16T00:43:47.540Z,2.70
2023-04-16T00:46:16.050Z,2.70
2023-04-16T00:48:44.862Z,2.70
2023-04-16T00:51:11.919Z,2.70
2023-04-16T00:53:38.992Z,2.80
2023-04-16T00:56:07.416Z,2.70
2023-04-16T00:58:35.643Z,2.70
2023-04-16T01:01:02.831Z,2.70
2023-04-16T01:03:43.402Z,2.80
2023-04-16T01:06:10.919Z,2.80
2023-04-16T01:08:38.592Z,2.70
2023-04-16T01:11:06.115Z,2.60
2023-04-16T01:13:33.930Z,2.70
2023-04-16T01:16:01.796Z,2.80
2023-04-16T01:18:28.792Z,2.70
2023-04-16T01:20:55.911Z,2.70
2023-04-16T01:23:23.150Z,2.70
2023-04-16T01:25:50.102Z,2.80
2023-04-16T01:28:17.093Z,2.70
2023-04-16T01:30:44.108Z,2.70
2023-04-16T01:33:12.281Z,2.60
2023-04-16T01:35:41.199Z,2.60
2023-04-16T01:38:09.337Z,2.60
2023-04-16T01:40:37.758Z,2.60
2023-04-16T01:43:05.098Z,2.60
2023-04-16T01:45:33.464Z,2.60
2023-04-16T01:48:00.899Z,2.60
2023-04-16T01:50:28.379Z,2.60
2023-04-16T01:52:55.297Z,2.50
2023-04-16T01:55:22.222Z,2.50
2023-04-16T01:57:49.073Z,2.50
2023-04-16T02:00:16.424Z,2.50
2023-04-16T02:02:43.379Z,2.50
2023-04-16T02:05:10.410Z,2.50
2023-04-16T02:07:37.327Z,2.40
2023-04-16T02:10:05.381Z,2.30
2023-04-16T02:12:32.285Z,2.30
2023-04-16T02:14:59.948Z,2.20
2023-04-16T02:17:26.928Z,2.40
2023-04-16T02:19:53.806Z,2.40
2023-04-16T02:22:20.709Z,2.40
2023-04-16T02:24:47.614Z,2.30
2023-04-16T02:27:14.475Z,2.20
2023-04-16T02:29:41.456Z,2.30
2023-04-16T02:32:08.576Z,2.30
2023-04-16T02:34:35.855Z,2.10
2023-04-16T02:37:02.702Z,2.20
2023-04-16T02:39:29.567Z,2.10
2023-04-16T02:41:56.517Z,2.10
2023-04-16T02:44:23.365Z,2.00
2023-04-16T02:46:50.264Z,2.00
2023-04-16T02:49:17.149Z,1.90
2023-04-16T02:51:44.064Z,2.10
2023-04-16T02:54:11.169Z,2.00
2023-04-16T02:56:38.022Z,2.00
2023-04-16T02:59:05.272Z,2.10
2023-04-16T03:01:32.178Z,2.10
2023-04-16T03:03:59.144Z,2.10
2023-04-16T03:06:27.612Z,2.20
2023-04-16T03:08:54.470Z,2.10
2023-04-16T03:11:21.395Z,2.00
2023-04-16T03:13:48.354Z,2.00
2023-04-16T03:16:15.640Z,1.90
2023-04-16T03:18:42.781Z,1.80
2023-04-16T03:21:09.669Z,1.80
2023-04-16T03:23:36.646Z,1.80
2023-04-16T03:26:03.648Z,1.70
2023-04-16T03:28:30.713Z,1.70
2023-04-16T03:31:00.335Z,1.60
2023-04-16T03:33:27.211Z,1.50
2023-04-16T03:35:57.986Z,1.40
2023-04-16T03:38:26.753Z,1.40
2023-04-16T03:40:53.728Z,1.50
2023-04-16T03:43:20.794Z,1.60
2023-04-16T03:45:47.886Z,1.80
2023-04-16T03:48:15.952Z,1.90
2023-04-16T03:50:46.946Z,1.90
2023-04-16T03:53:14.469Z,1.80
2023-04-16T03:55:42.186Z,1.80
2023-04-16T03:58:09.238Z,1.80
2023-04-16T04:00:36.242Z,1.80
2023-04-16T04:03:03.380Z,1.80
2023-04-16T04:05:30.429Z,1.70
2023-04-16T04:07:57.272Z,1.80
2023-04-16T04:10:24.250Z,1.80
2023-04-16T04:12:51.154Z,1.90
2023-04-16T04:15:18.162Z,1.80
2023-04-16T04:17:45.094Z,1.80
2023-04-16T04:20:12.503Z,1.70
2023-04-16T04:22:39.574Z,1.70
2023-04-16T04:25:06.803Z,1.80
2023-04-16T04:27:33.630Z,1.80
2023-04-16T04:30:00.502Z,1.90
2023-04-16T04:32:27.470Z,1.90
2023-04-16T04:34:54.352Z,1.80
2023-04-16T04:37:21.415Z,1.90
2023-04-16T04:39:48.300Z,1.90
2023-04-16T04:42:18.620Z,1.90
2023-04-16T04:44:46.226Z,1.90
2023-04-16T04:47:16.074Z,1.80
2023-04-16T04:49:43.006Z,1.80
2023-04-16T04:52:09.958Z,1.80
2023-04-16T04:54:36.885Z,1.80
2023-04-16T04:57:03.785Z,1.90
2023-04-16T04:59:30.765Z,2.00
2023-04-16T05:01:57.664Z,2.10
2023-04-16T05:04:24.602Z,2.10
2023-04-16T05:06:51.532Z,2.10
2023-04-16T05:09:18.394Z,2.10
2023-04-16T05:11:45.348Z,2.20
2023-04-16T05:14:12.222Z,2.30
2023-04-16T05:16:39.224Z,2.30
2023-04-16T05:19:06.186Z,2.30
2023-04-16T05:21:33.848Z,2.40
2023-04-16T05:24:00.889Z,2.40
2023-04-16T05:26:27.776Z,2.50
2023-04-16T05:28:54.702Z,2.40
2023-04-16T05:31:21.741Z,2.50
2023-04-16T05:33:48.654Z,2.50
2023-04-16T05:36:15.584Z,2.60
2023-04-16T05:38:42.487Z,2.60
2023-04-16T05:41:09.381Z,2.70
2023-04-16T05:43:36.265Z,2.80
2023-04-16T05:46:03.201Z,2.90
2023-04-16T05:48:30.130Z,2.90
2023-04-16T05:50:56.991Z,3.00
2023-04-16T05:53:24.008Z,3.00
2023-04-16T05:55:51.042Z,3.20
2023-04-16T05:58:17.941Z,3.10
2023-04-16T06:00:45.346Z,3.20
2023-04-16T06:03:12.529Z,3.30
2023-04-16T06:05:39.566Z,3.40
2023-04-16T06:08:06.496Z,3.40
2023-04-16T06:10:33.357Z,3.50
2023-04-16T06:13:00.220Z,3.50
2023-04-16T06:15:27.079Z,3.50
2023-04-16T06:17:55.965Z,3.70
2023-04-16T06:20:22.896Z,3.70
2023-04-16T06:22:49.988Z,3.80
2023-04-16T06:25:18.194Z,3.80
2023-04-16T06:27:45.234Z,3.90
2023-04-16T06:30:13.788Z,4.00
2023-04-16T06:32:41.031Z,4.00
2023-04-16T06:35:08.496Z,4.10
2023-04-16T06:37:35.692Z,4.10
2023-04-16T06:40:02.776Z,4.20
2023-04-16T06:42:29.666Z,4.30
2023-04-16T06:44:56.569Z,4.50
2023-04-16T06:47:23.581Z,4.70
2023-04-16T06:49:50.475Z,4.70
2023-04-16T06:52:17.420Z,4.80
2023-04-16T06:54:44.341Z,4.90
2023-04-16T06:57:11.393Z,5.00
2023-04-16T06:59:39.614Z,5.00
2023-04-16T07:02:08.553Z,5.10
2023-04-16T07:04:35.976Z,5.30
2023-04-16T07:07:02.886Z,5.30
2023-04-16T07:09:29.730Z,5.40
2023-04-16T07:11:56.620Z,5.40
2023-04-16T07:14:23.580Z,5.50
2023-04-16T07:16:50.625Z,5.60
2023-04-16T07:19:17.642Z,5.70
2023-04-16T07:21:44.694Z,5.90
2023-04-16T07:24:11.906Z,6.00
2023-04-16T07:26:38.773Z,6.10
2023-04-16T07:29:05.676Z,6.10
2023-04-16T07:31:32.687Z,6.10
2023-04-16T07:33:59.739Z,6.10
2023-04-16T07:36:28.442Z,6.20
2023-04-16T07:38:56.117Z,6.40
2023-04-16T07:41:23.034Z,6.60
2023-04-16T07:43:49.870Z,6.60
2023-04-16T07:46:16.939Z,6.70
2023-04-16T07:48:43.930Z,6.70
2023-04-16T07:51:11.113Z,6.80
2023-04-16T07:53:38.046Z,6.80
2023-04-16T07:56:05.043Z,6.80
2023-04-16T07:58:31.916Z,6.90
2023-04-16T08:00:59.201Z,7.00
2023-04-16T08:03:26.726Z,7.20
2023-04-16T08:05:53.836Z,7.40
2023-04-16T08:08:22.236Z,7.50
2023-04-16T08:10:49.151Z,7.60
2023-04-16T08:13:16.037Z,7.70
2023-04-16T08:15:42.994Z,7.90
2023-04-16T08:18:12.988Z,7.90
2023-04-16T08:20:39.894Z,8.10
2023-04-16T08:23:06.801Z,8.10
2023-04-16T08:25:33.943Z,8.30
2023-04-16T08:28:00.802Z,8.30
2023-04-16T08:30:28.692Z,8.30
2023-04-16T08:32:56.074Z,8.30
2023-04-16T08:35:23.219Z,8.40
2023-04-16T08:37:50.136Z,8.50
2023-04-16T08:40:17.610Z,8.50
2023-04-16T08:42:53.172Z,8.60
2023-04-16T08:45:20.250Z,8.70
2023-04-16T08:47:49.390Z,8.70
2023-04-16T08:50:17.904Z,8.80
2023-04-16T08:52:58.207Z,8.90
2023-04-16T08:55:50.001Z,9.00
2023-04-16T08:58:25.752Z,9.00
2023-04-16T09:00:53.172Z,9.00
2023-04-16T09:03:21.734Z,9.20
2023-04-16T09:05:50.480Z,9.30
2023-04-16T09:08:18.230Z,9.30
2023-04-16T09:10:45.358Z,9.50
2023-04-16T09:13:14.813Z,9.70
2023-04-16T09:15:42.278Z,9.80
2023-04-16T09:18:10.359Z,9.70
2023-04-16T09:20:37.497Z,9.60
2023-04-16T09:23:04.605Z,9.80
2023-04-16T09:25:35.351Z,9.80
2023-04-16T09:28:02.232Z,9.80
2023-04-16T09:30:29.305Z,9.80
2023-04-16T09:33:22.955Z,10.00
2023-04-16T09:35:52.762Z,9.90
2023-04-16T09:38:20.521Z,9.80
2023-04-16T09:40:47.760Z,10.00
2023-04-16T09:43:17.566Z,10.00
2023-04-16T09:45:55.467Z,10.00
2023-04-16T09:48:32.861Z,10.20
2023-04-16T09:51:00.860Z,10.20
2023-04-16T09:53:31.551Z,10.30
2023-04-16T09:55:59.909Z,10.50
2023-04-16T09:58:27.510Z,10.40
2023-04-16T10:01:12.043Z,10.40
2023-04-16T10:03:40.544Z,10.40
2023-04-16T10:06:16.716Z,10.40
2023-04-16T10:08:49.142Z,10.40
2023-04-16T10:11:17.611Z,10.30
2023-04-16T10:13:44.585Z,10.20
2023-04-16T10:16:12.029Z,10.40
2023-04-16T10:18:43.581Z,10.60
2023-04-16T10:21:15.396Z,10.80
2023-04-16T10:23:43.895Z,10.80
2023-04-16T10:26:11.263Z,10.80
2023-04-16T10:28:38.430Z,10.70
2023-04-16T10:31:08.560Z,10.70
2023-04-16T10:33:39.829Z,10.80
2023-04-16T10:36:14.776Z,10.90
2023-04-16T10:38:50.736Z,11.00
2023-04-16T10:41:17.467Z,11.10
2023-04-16T10:43:48.616Z,11.00
2023-04-16T10:46:33.561Z,11.20
2023-04-16T10:49:02.929Z,11.30
2023-04-16T10:51:34.997Z,11.60
2023-04-16T10:54:14.650Z,11.70
2023-04-16T10:56:41.584Z,11.70
2023-04-16T10:59:11.708Z,11.60
2023-04-16T11:01:43.051Z,11.60
2023-04-16T11:04:22.560Z,11.50
2023-04-16T11:07:11.706Z,11.40
2023-04-16T11:09:47.738Z,11.40
2023-04-16T11:12:18.652Z,11.50
2023-04-16T11:14:54.116Z,11.50
2023-04-16T11:17:22.017Z,11.50
2023-04-16T11:19:49.033Z,11.50
2023-04-16T11:22:17.834Z,11.60
2023-04-16T11:24:46.270Z,11.60
2023-04-16T11:27:14.556Z,11.60
2023-04-16T11:29:42.181Z,11.60
2023-04-16T11:32:09.260Z,11.60
2023-04-16T11:34:44.869Z,11.70
2023-04-16T11:37:12.043Z,11.70
2023-04-16T11:39:49.520Z,11.80
2023-04-16T11:42:22.772Z,11.80
2023-04-16T11:44:54.580Z,11.70
2023-04-16T11:47:23.077Z,11.60
2023-04-16T11:49:50.636Z,11.70
2023-04-16T11:52:32.346Z,11.80
2023-04-16T11:55:00.245Z,12.00
2023-04-16T11:57:31.961Z,12.10
2023-04-16T12:00:02.315Z,12.10
2023-04-16T12:02:44.077Z,11.90
2023-04-16T12:05:28.684Z,11.90
2023-04-16T12:07:56.356Z,12.00
2023-04-16T12:10:23.305Z,12.00
2023-04-16T12:12:50.663Z,12.10
2023-04-16T12:15:17.637Z,12.20
2023-04-16T12:17:44.717Z,12.20
2023-04-16T12:20:13.756Z,12.20
2023-04-16T12:22:45.355Z,12.30
2023-04-16T12:25:17.358Z,12.30
2023-04-16T12:27:53.962Z,12.30
2023-04-16T12:30:23.718Z,12.20
2023-04-16T12:32:52.607Z,12.10
2023-04-16T12:35:42.027Z,12.10
2023-04-16T12:38:09.060Z,12.20
2023-04-16T12:40:36.567Z,12.20
2023-04-16T12:43:03.453Z,12.30
2023-04-16T12:45:30.435Z,12.40
2023-04-16T12:47:57.660Z,12.50
2023-04-16T12:50:24.750Z,12.40
2023-04-16T12:52:51.735Z,12.30
2023-04-16T12:55:19.487Z,12.10
2023-04-16T12:57:48.945Z,12.10
2023-04-16T13:00:16.436Z,12.00
2023-04-16T13:02:43.516Z,12.00
2023-04-16T13:05:10.666Z,11.90
2023-04-16T13:07:37.733Z,11.90
2023-04-16T13:10:05.756Z,11.90
2023-04-16T13:12:32.864Z,11.90
2023-04-16T13:14:59.761Z,11.80
2023-04-16T13:17:26.683Z,11.60
2023-04-16T13:19:53.657Z,11.60
2023-04-16T13:22:20.850Z,11.60
2023-04-16T13:24:47.856Z,11.50
2023-04-16T13:27:16.239Z,11.40
2023-04-16T13:29:43.327Z,11.30
2023-04-16T13:32:10.352Z,11.40
2023-04-16T13:34:37.549Z,11.40
2023-04-16T13:37:04.669Z,11.40
2023-04-16T13:39:31.573Z,11.40
2023-04-16T13:41:58.455Z,11.40
2023-04-16T13:44:25.380Z,11.30
2023-04-16T13:46:53.047Z,11.20
2023-04-16T13:49:19.992Z,11.20
2023-04-16T13:51:46.888Z,11.20
2023-04-16T13:54:13.777Z,11.20
2023-04-16T13:56:40.964Z,11.20
2023-04-16T13:59:08.692Z,11.10
2023-04-16T14:01:35.914Z,11.10
2023-04-16T14:04:06.608Z,11.20
2023-04-16T14:06:34.940Z,11.20
2023-04-16T14:09:01.965Z,11.20
2023-04-16T14:11:29.016Z,11.20
2023-04-16T14:13:56.239Z,11.10
2023-04-16T14:16:23.378Z,11.10
2023-04-16T14:18:52.062Z,11.20
2023-04-16T14:21:19.361Z,11.20
2023-04-16T14:23:46.881Z,11.30
2023-04-16T14:26:13.958Z,11.30
2023-04-16T14:28:41.523Z,11.20
2023-04-16T14:31:08.626Z,11.20
2023-04-16T14:33:35.615Z,11.20
2023-04-16T14:36:03.571Z,11.20
2023-04-16T14:38:31.336Z,11.10
2023-04-16T14:40:58.265Z,11.00
2023-04-16T14:43:25.160Z,11.00
2023-04-16T14:45:52.826Z,11.00
2023-04-16T14:48:19.803Z,11.00
2023-04-16T14:50:46.644Z,11.00
2023-04-16T14:53:13.692Z,11.00
2023-04-16T14:55:40.637Z,11.10
2023-04-16T14:58:07.626Z,11.20
2023-04-16T15:00:37.786Z,11.30
2023-04-16T15:03:05.839Z,11.40
2023-04-16T15:05:33.081Z,11.50
2023-04-16T15:08:00.725Z,11.60
2023-04-16T15:10:27.923Z,11.50
2023-04-16T15:12:54.875Z,11.50
2023-04-16T15:15:22.107Z,11.20
2023-04-16T15:17:50.994Z,11.30
2023-04-16T15:20:18.395Z,11.20
2023-04-16T15:22:45.285Z,11.10
2023-04-16T15:25:12.199Z,11.10
2023-04-16T15:27:39.032Z,10.90
2023-04-16T15:30:06.694Z,10.90
2023-04-16T15:32:33.640Z,10.80
2023-04-16T15:35:02.362Z,10.70
2023-04-16T15:37:29.263Z,10.60
2023-04-16T15:39:56.716Z,10.50
2023-04-16T15:42:24.231Z,10.30
2023-04-16T15:44:51.174Z,10.20
2023-04-16T15:47:18.047Z,10.20
2023-04-16T15:49:44.919Z,10.10
2023-04-16T15:52:12.188Z,10.00
2023-04-16T15:54:39.221Z,9.80
2023-04-16T15:57:06.467Z,9.70
2023-04-16T15:59:33.480Z,9.70
2023-04-16T16:02:01.198Z,9.60
2023-04-16T16:04:28.439Z,9.70
2023-04-16T16:06:56.346Z,9.70
2023-04-16T16:09:26.677Z,9.60
2023-04-16T16:11:55.053Z,9.60
2023-04-16T16:14:22.711Z,9.60
2023-04-16T16:16:49.888Z,9.60
2023-04-16T16:19:17.607Z,9.50
2023-04-16T16:21:44.540Z,9.50
2023-04-16T16:24:11.521Z,9.50
2023-04-16T16:26:38.381Z,9.50
2023-04-16T16:29:05.736Z,9.40
2023-04-16T16:31:32.712Z,9.40
2023-04-16T16:33:59.728Z,9.30
2023-04-16T16:36:26.662Z,9.30
2023-04-16T16:38:53.593Z,9.20
2023-04-16T16:41:20.674Z,9.10
2023-04-16T16:43:47.666Z,9.00
2023-04-16T16:46:14.620Z,9.10
2023-04-16T16:48:41.511Z,9.00
2023-04-16T16:51:11.394Z,9.00
2023-04-16T16:53:38.441Z,9.00
2023-04-16T16:56:05.820Z,8.90
2023-04-16T16:58:32.702Z,8.90
2023-04-16T17:00:59.865Z,8.80
2023-04-16T17:03:26.907Z,8.70
2023-04-16T17:05:53.860Z,8.60
2023-04-16T17:08:20.865Z,8.60
2023-04-16T17:10:48.000Z,8.50
2023-04-16T17:13:19.636Z,8.40
2023-04-16T17:15:47.049Z,8.30
2023-04-16T17:18:14.098Z,8.20
2023-04-16T17:20:41.055Z,8.20
2023-04-16T17:23:07.983Z,8.10
2023-04-16T17:25:34.942Z,8.10
2023-04-16T17:28:02.278Z,8.10
2023-04-16T17:30:31.597Z,8.00
2023-04-16T17:32:58.631Z,8.00
2023-04-16T17:35:25.565Z,7.90
2023-04-16T17:37:52.504Z,7.80
2023-04-16T17:40:19.425Z,7.70
2023-04-16T17:42:49.971Z,7.60
2023-04-16T17:45:16.998Z,7.50
2023-04-16T17:47:46.989Z,7.40
2023-04-16T17:50:13.932Z,7.30
2023-04-16T17:52:41.282Z,7.30
2023-04-16T17:55:08.513Z,7.30
2023-04-16T17:57:35.506Z,7.20
2023-04-16T18:00:02.958Z,7.20
2023-04-16T18:02:30.004Z,7.10
2023-04-16T18:04:57.088Z,7.00
2023-04-16T18:07:24.142Z,6.90
2023-04-16T18:09:50.995Z,6.80
2023-04-16T18:12:17.984Z,6.70
2023-04-16T18:14:45.040Z,6.70
2023-04-16T18:17:13.103Z,6.60
2023-04-16T18:19:41.183Z,6.50
2023-04-16T18:22:08.085Z,6.50
2023-04-16T18:24:36.504Z,6.40
2023-04-16T18:27:03.996Z,6.40
2023-04-16T18:29:33.911Z,6.30
2023-04-16T18:32:04.399Z,6.20
2023-04-16T18:34:32.181Z,6.20
2023-04-16T18:36:59.138Z,6.20
2023-04-16T18:39:26.112Z,6.10
2023-04-16T18:41:53.051Z,6.10
2023-04-16T18:44:20.094Z,6.10
2023-04-16T18:46:47.092Z,6.10
2023-04-16T18:49:14.149Z,6.00
2023-04-16T18:51:42.080Z,6.00
2023-04-16T18:54:09.437Z,5.90
2023-04-16T18:56:36.943Z,5.80
2023-04-16T18:59:03.848Z,5.80
2023-04-16T19:01:31.148Z,5.80
2023-04-16T19:03:58.165Z,5.70
2023-04-16T19:06:25.135Z,5.70
2023-04-16T19:08:52.021Z,5.60
2023-04-16T19:11:18.936Z,5.60
2023-04-16T19:13:46.041Z,5.50
2023-04-16T19:16:13.191Z,5.50
2023-04-16T19:18:40.301Z,5.50
2023-04-16T19:21:07.371Z,5.40
2023-04-16T19:23:34.365Z,5.40
2023-04-16T19:26:01.670Z,5.30
2023-04-16T19:28:28.710Z,5.30
2023-04-16T19:30:56.185Z,5.20
2023-04-16T19:33:23.128Z,5.20
2023-04-16T19:35:50.243Z,5.10
2023-04-16T19:38:17.248Z,5.10
2023-04-16T19:40:46.316Z,5.00
2023-04-16T19:43:13.512Z,4.90
2023-04-16T19:45:53.605Z,4.90
2023-04-16T19:48:21.485Z,4.70
2023-04-16T19:50:48.845Z,4.70
2023-04-16T19:53:17.314Z,4.70
2023-04-16T19:55:44.268Z,4.70
2023-04-16T19:58:11.244Z,4.60
2023-04-16T20:00:40.847Z,4.50
2023-04-16T20:03:07.953Z,4.50
2023-04-16T20:05:35.080Z,4.30
2023-04-16T20:08:02.053Z,4.20
2023-04-16T20:10:31.412Z,4.10
2023-04-16T20:12:58.617Z,4.10
2023-04-16T20:15:25.906Z,4.10
2023-04-16T20:17:53.473Z,4.10
2023-04-16T20:20:22.699Z,4.10
2023-04-16T20:22:49.721Z,4.10
2023-04-16T20:25:19.070Z,4.00
2023-04-16T20:27:46.316Z,4.00
2023-04-16T20:30:14.010Z,4.00
2023-04-16T20:32:41.059Z,3.90
2023-04-16T20:35:10.916Z,3.90
2023-04-16T20:37:43.092Z,3.80
2023-04-16T20:40:11.056Z,3.80
2023-04-16T20:42:38.075Z,3.80
2023-04-16T20:45:05.788Z,3.70
2023-04-16T20:47:34.878Z,3.70
2023-04-16T20:50:02.801Z,3.70
2023-04-16T20:52:29.647Z,3.70
2023-04-16T20:54:56.533Z,3.70
2023-04-16T20:57:23.389Z,3.70
2023-04-16T20:59:50.549Z,3.50
2023-04-16T21:02:17.610Z,3.50
2023-04-16T21:04:44.902Z,3.50
2023-04-16T21:07:12.124Z,3.40
2023-04-16T21:09:39.017Z,3.40
2023-04-16T21:12:06.209Z,3.30
2023-04-16T21:14:33.051Z,3.20
2023-04-16T21:16:59.960Z,3.20
2023-04-16T21:19:26.884Z,3.10
2023-04-16T21:21:53.957Z,3.00
2023-04-16T21:24:21.015Z,3.00
2023-04-16T21:26:47.841Z,3.00
2023-04-16T21:29:14.905Z,2.90
2023-04-16T21:31:41.947Z,2.80
2023-04-16T21:34:09.098Z,2.70
2023-04-16T21:36:36.094Z,2.70
2023-04-16T21:39:03.004Z,2.70
2023-04-16T21:41:29.915Z,2.70
2023-04-16T21:43:56.883Z,2.60
2023-04-16T21:46:23.840Z,2.60
2023-04-16T21:48:50.938Z,2.60
2023-04-16T21:51:18.194Z,2.60
2023-04-16T21:53:45.143Z,2.50
2023-04-16T21:56:12.259Z,2.40
2023-04-16T21:58:39.150Z,2.10
2023-04-16T22:01:07.705Z,2.10
2023-04-16T22:03:40.276Z,2.00
2023-04-16T22:06:07.933Z,2.00
2023-04-16T22:08:34.891Z,2.00
2023-04-16T22:11:02.999Z,2.00
2023-04-16T22:13:32.600Z,2.00
2023-04-16T22:16:03.355Z,2.00
2023-04-16T22:18:33.198Z,1.90
2023-04-16T22:21:00.638Z,1.80
2023-04-16T22:23:27.573Z,1.70
2023-04-16T22:25:56.054Z,1.70
2023-04-16T22:28:23.823Z,1.70
2023-04-16T22:30:51.316Z,1.60
2023-04-16T22:33:18.486Z,1.50
2023-04-16T22:35:46.204Z,1.50
2023-04-16T22:38:13.181Z,1.50
2023-04-16T22:40:40.086Z,1.40
2023-04-16T22:43:06.985Z,1.40
2023-04-16T22:45:34.711Z,1.40
2023-04-16T22:48:01.759Z,1.30
2023-04-16T22:50:31.275Z,1.20
2023-04-16T22:52:58.322Z,1.20
2023-04-16T22:55:25.592Z,1.20
2023-04-16T22:57:52.550Z,1.10
2023-04-16T23:00:19.583Z,1.10
2023-04-16T23:02:46.807Z,1.00
2023-04-16T23:05:13.840Z,1.00
2023-04-16T23:07:40.855Z,1.00
2023-04-16T23:10:08.761Z,1.00
2023-04-16T23:12:39.257Z,1.00
2023-04-16T23:15:06.953Z,1.00
2023-04-16T23:17:35.181Z,1.00
2023-04-16T23:20:02.506Z,1.00
2023-04-16T23:22:29.536Z,1.00
2023-04-16T23:24:56.511Z,1.00
2023-04-16T23:27:23.602Z,1.00
2023-04-16T23:29:50.746Z,0.90
2023-04-16T23:32:17.998Z,1.00
2023-04-16T23:34:45.134Z,0.90
2023-04-16T23:37:12.099Z,1.00
2023-04-16T23:39:39.089Z,0.90
2023-04-16T23:42:06.187Z,0.90
2023-04-16T23:44:33.208Z,0.90
2023-04-16T23:47:00.166Z,0.80
2023-04-16T23:49:27.084Z,0.80
2023-04-16T23:51:54.071Z,0.80
2023-04-16T23:54:21.506Z,0.70
2023-04-16T23:56:48.653Z,0.70
2023-04-16T23:59:16.800Z,0.60
